Fleetwood, North Carolina
Current Conditions -  °F | °C
As of 2:15 AM on Wednesday 22 Oct 2014 (Local Time) from KGEV Reporting Station
Scattered Clouds Scattered Clouds  
Wind Chill: 33°   Ceiling: Unl
Heat Index: 41°   Visibility: 10mi
Dew Point: 33°   Wind: 17mph
Humidity: 73%   Direction: 320°NW
Pressure: 29.98"   Gusts: 26mph
Location:  36.31°N, 81.51°W
Report Text: KGEV 220615Z AUTO 32015G23KT 10SM SCT019 05/01 A2998 RMK AO2 T00520007
Loading
Personal Weather Stations






























Interactive Weather Map
Tropical Storm Tracking
New forecast layout! Learn more

10-Day Weather Forecast

Advertisements
Track Severe Weather on mobile